This is the latest recevied weather packets stored in our database for station/object WX7FGZ-5. If no packets are shown the sender has not sent any weather packets the latest 10 day(s).
| Time | Temp. | Humidity | Pressure | Rain* | Wind** | Luminosity | Snow |
|---|---|---|---|---|---|---|---|
| 1777709830 | 4.44° C | 42% | 1024.6 hPa | 0 mm | - | 0 W/m² | - |
| 1777709823 | 4.44° C | 41% | 1024.5 hPa | 0 mm | - | 0 W/m² | - |
| 1777709522 | 4.44° C | 42% | 1024.6 hPa | 0 mm | - | 0 W/m² | - |
| 1777708923 | 4.44° C | 43% | 1024.4 hPa | 0 mm | - | 0 W/m² | - |
| 1777708626 | 5.56° C | 39% | 1024.6 hPa | 0 mm | - | 0 W/m² | - |
| 1777708323 | 5.56° C | 39% | 1024.6 hPa | 0 mm | - | 0 W/m² | - |
| 1777708023 | 6.67° C | 38% | 1024.5 hPa | 0 mm | - | 0 W/m² | - |
| 1777707984 | 6.67° C | 37% | 1024.7 hPa | 0 mm | - | 0 W/m² | - |
| 1777707723 | 6.67° C | 37% | 1024.7 hPa | 0 mm | - | 0 W/m² | - |
| 1777706870 | 5.56° C | 40% | 1024.6 hPa | 0 mm | - | 0 W/m² | - |
| 1777706523 | 5.56° C | 40% | 1024.6 hPa | 0 mm | - | 0 W/m² | - |
| 1777706503 | 5.56° C | 41% | 1024.6 hPa | 0 mm | - | 0 W/m² | - |
| 1777706223 | 5.56° C | 41% | 1024.6 hPa | 0 mm | - | 0 W/m² | - |
| 1777705623 | 5.56° C | 41% | 1024.4 hPa | 0 mm | - | 0 W/m² | - |
| 1777705323 | 5.56° C | 41% | 1024.3 hPa | 0 mm | - | 0 W/m² | - |
| 1777705023 | 5.56° C | 42% | 1024.4 hPa | 0 mm | - | 0 W/m² | - |
| 1777704776 | 6.11° C | 40% | 1024.3 hPa | 0 mm | - | 0 W/m² | - |
| 1777704725 | 5.56° C | 40% | 1024.3 hPa | 0 mm | - | 0 W/m² | - |
| 1777704423 | 6.11° C | 40% | 1024.3 hPa | 0 mm | - | 0 W/m² | - |
| 1777704123 | 6.67° C | 39% | 1024.1 hPa | 0 mm | - | 0 W/m² | - |
| 1777703224 | 7.22° C | 38% | 1024.2 hPa | 0 mm | - | 0 W/m² | - |
| 1777703204 | 7.78° C | 37% | 1024 hPa | 0 mm | - | 0 W/m² | - |
| 1777702923 | 7.78° C | 37% | 1024 hPa | 0 mm | - | 0 W/m² | - |
| 1777702852 | 7.78° C | 36% | 1023.9 hPa | 0 mm | - | 0 W/m² | - |
| 1777702635 | 7.22° C | 38% | 1023.8 hPa | 0 mm | - | 0 W/m² | - |
* Rain latest hour (hover to see other rain measurements)
** Current wind speed in m/s (hover to see current wind gust speed)